Alva, FL

8:03 AM EDT on July 29, 2015 (GMT -0400)
Gary & Lori River Oaks Alva | | Change Station
CLOSE
Current Station
Personal Weather Station
Location: Alva, FL
Elevation: 11 ft
Nearby Weather Stations

Elev 11 ft 26.71 °N, 81.62 °W | Updated 3 minutes ago

Mostly Cloudy
Mostly Cloudy
75.8 °F
Feels Like 75 °F
N
0.0
Wind Variable Wind from SW
Gusts 0.0 mph

Today
High -- | Low -- °F
--% Chance of Precip.
Yesterday
High -- | Low -- °F
Precip. -- in
6:49 AM 8:16 PM
Waxing Gibbous, 95% visible
Pressure 29.98 in
Visibility 10.0 miles
Clouds Few 4200 ft
Scattered Clouds 7500 ft
Heat Index 75 °F
Dew Point 75 °F
Humidity 96%
Rainfall 0.05 in
Snow Depth Not available.
UV 1 out of 12
Pollen 3.20 out of 12
Air Quality Not available.
Flu Activity Not available.
METAR KRSW 291153Z 21005KT 10SM FEW042 SCT075 26/24 A2999 RMK AO2 RAB10E42 SLP152 P0000 60000 70003 T02610239 10267 20250 53005

More Conditions Fewer Conditions

Pressure 29.98 in
Visibility 10.0 miles
Clouds Few 4200 ft
Scattered Clouds 7500 ft
Heat Index 75 °F
Dew Point 75 °F
Humidity 96%
Rainfall 0.05 in
Snow Depth Not available.
UV 1 out of 12
Pollen 3.20 out of 12
Air Quality Not available.
Flu Activity Not available.
METAR KRSW 291153Z 21005KT 10SM FEW042 SCT075 26/24 A2999 RMK AO2 RAB10E42 SLP152 P0000 60000 70003 T02610239 10267 20250 53005

More Conditions Fewer Conditions

10-Day Weather Forecast

×

Almanac

Astronomy

Jul. 29, 2015 Rise Set
Actual Time
Civil Twilight
Nautical Twilight
Astronomical Twilight
Moon
Length of Visible Light
Length of Day
Tomorrow will be .
, % of the Moon is Illuminated

Today's Extremes

State Highs State Lows

Community

WunderPhotos

Upload Photos

1,842,084 photos uploaded!

WunderBlogs® & News

Nearby

Air Quality

  Air Quality AQ Index Pollutant
Not available.

Snow Depth

Station Depth Elevation

Earthquake Activity

City Distance Mag. Time & Date
Minimum magnitude displayed is 2.5.

Coastal Water Temperatures

Place Temperature

Stations

Nearby Weather Stations

Station Location Temp. Windchill Dew Point Humidity Wind Precip. Elev Updated Type